createdAt,value
2022-10-02T00:02:52.909Z,10.90
2022-10-02T00:06:09.490Z,10.89
2022-10-02T00:09:25.205Z,10.87
2022-10-02T00:12:38.036Z,10.89
2022-10-02T00:15:50.420Z,10.92
2022-10-02T00:19:04.764Z,10.95
2022-10-02T00:22:39.830Z,10.94
2022-10-02T00:25:56.216Z,10.96
2022-10-02T00:29:17.026Z,10.97
2022-10-02T00:32:35.309Z,10.98
2022-10-02T00:36:06.570Z,10.99
2022-10-02T00:39:29.587Z,11.03
2022-10-02T00:43:07.697Z,11.04
2022-10-02T00:46:49.044Z,11.07
2022-10-02T00:50:11.033Z,11.08
2022-10-02T00:53:30.198Z,11.10
2022-10-02T00:56:48.130Z,11.10
2022-10-02T01:00:09.489Z,11.14
2022-10-02T01:03:27.170Z,11.14
2022-10-02T01:06:38.836Z,11.15
2022-10-02T01:09:51.920Z,11.17
2022-10-02T01:13:04.932Z,11.17
2022-10-02T01:16:19.415Z,11.17
2022-10-02T01:19:37.579Z,11.19
2022-10-02T01:22:55.994Z,11.21
2022-10-02T01:26:08.215Z,11.22
2022-10-02T01:29:19.939Z,11.22
2022-10-02T01:32:33.414Z,11.24
2022-10-02T01:35:46.503Z,11.24
2022-10-02T01:39:00.040Z,11.25
2022-10-02T01:42:11.965Z,11.27
2022-10-02T01:45:28.061Z,11.30
2022-10-02T01:48:55.494Z,11.29
2022-10-02T01:52:31.465Z,11.28
2022-10-02T01:55:49.115Z,11.28
2022-10-02T01:59:08.910Z,11.26
2022-10-02T02:02:28.091Z,11.23
2022-10-02T02:05:49.533Z,11.18
2022-10-02T02:09:10.046Z,11.13
2022-10-02T02:12:25.386Z,11.11
2022-10-02T02:15:44.067Z,11.12
2022-10-02T02:19:02.309Z,11.13
2022-10-02T02:22:18.185Z,11.11
2022-10-02T02:25:34.655Z,11.09
2022-10-02T02:28:50.672Z,11.11
2022-10-02T02:32:03.653Z,11.14
2022-10-02T02:35:20.553Z,11.13
2022-10-02T02:38:36.355Z,11.11
2022-10-02T02:41:52.256Z,11.09
2022-10-02T02:45:09.059Z,11.12
2022-10-02T02:48:26.046Z,11.14
2022-10-02T02:51:42.404Z,11.13
2022-10-02T02:54:59.156Z,11.12
2022-10-02T02:58:15.370Z,11.11
2022-10-02T03:01:27.267Z,11.10
2022-10-02T03:04:39.250Z,11.10
2022-10-02T03:07:57.078Z,11.07
2022-10-02T03:11:18.676Z,11.07
2022-10-02T03:14:55.858Z,11.05
2022-10-02T03:18:34.244Z,11.06
2022-10-02T03:21:52.793Z,11.04
2022-10-02T03:25:10.349Z,11.04
2022-10-02T03:28:53.945Z,11.08
2022-10-02T03:31:43.540Z,11.10
2022-10-02T03:34:57.161Z,11.11
2022-10-02T03:38:12.389Z,11.11
2022-10-02T03:41:24.203Z,11.10
2022-10-02T03:44:35.712Z,11.13
2022-10-02T03:47:47.238Z,11.17
2022-10-02T03:50:59.067Z,11.21
2022-10-02T03:54:16.641Z,11.24
2022-10-02T03:57:30.235Z,11.28
2022-10-02T04:00:47.635Z,11.28
2022-10-02T04:04:04.194Z,11.32
2022-10-02T04:07:23.007Z,11.35
2022-10-02T04:10:45.112Z,11.35
2022-10-02T04:14:02.528Z,11.39
2022-10-02T04:17:20.049Z,11.39
2022-10-02T04:20:37.265Z,11.40
2022-10-02T04:23:56.477Z,11.42
2022-10-02T04:27:15.641Z,11.42
2022-10-02T04:30:30.006Z,11.44
2022-10-02T04:33:42.666Z,11.47
2022-10-02T04:37:09.067Z,11.49
2022-10-02T04:40:50.432Z,11.47
2022-10-02T04:44:12.229Z,11.42
2022-10-02T04:47:43.215Z,11.43
2022-10-02T04:51:01.551Z,11.45
2022-10-02T04:54:35.652Z,11.46
2022-10-02T04:58:20.823Z,11.46
2022-10-02T05:01:45.861Z,11.50
2022-10-02T05:05:22.397Z,11.52
2022-10-02T05:09:01.418Z,11.52
2022-10-02T05:12:40.689Z,11.53
2022-10-02T05:16:10.116Z,11.51
2022-10-02T05:19:46.589Z,11.55
2022-10-02T05:23:14.163Z,11.53
2022-10-02T05:26:55.661Z,11.58
2022-10-02T05:30:15.248Z,11.62
2022-10-02T05:33:55.246Z,11.61
2022-10-02T05:37:25.079Z,11.62
2022-10-02T05:40:43.526Z,11.66
2022-10-02T05:44:01.152Z,11.71
2022-10-02T05:47:21.815Z,11.77
2022-10-02T05:50:39.708Z,11.80
2022-10-02T05:53:57.328Z,11.80
2022-10-02T05:57:17.078Z,11.81
2022-10-02T06:00:39.056Z,11.82
2022-10-02T06:03:55.704Z,11.86
2022-10-02T06:07:12.814Z,11.82
2022-10-02T06:10:29.340Z,11.87
2022-10-02T06:13:47.215Z,11.84
2022-10-02T06:17:03.716Z,11.85
2022-10-02T06:20:25.315Z,11.85
2022-10-02T06:23:41.749Z,11.87
2022-10-02T06:27:00.707Z,11.94
2022-10-02T06:30:17.076Z,11.95
2022-10-02T06:33:32.137Z,11.98
2022-10-02T06:37:25.849Z,11.93
2022-10-02T06:40:52.690Z,12.08
2022-10-02T06:44:22.162Z,13.25
2022-10-02T06:47:45.395Z,13.72
2022-10-02T06:51:05.101Z,13.35
2022-10-02T06:54:37.494Z,13.15
2022-10-02T06:58:17.103Z,13.35
2022-10-02T07:01:41.168Z,13.34
2022-10-02T07:05:13.479Z,13.23
2022-10-02T07:08:37.422Z,13.16
2022-10-02T07:11:58.152Z,13.81
2022-10-02T07:34:35.978Z,13.46
2022-10-02T07:37:54.626Z,13.58
2022-10-02T07:41:12.793Z,13.41
2022-10-02T07:45:11.401Z,13.54
2022-10-02T07:48:57.934Z,13.77
2022-10-02T07:55:25.988Z,14.01
2022-10-02T07:58:45.186Z,14.25
2022-10-02T08:01:58.795Z,14.72
2022-10-02T08:05:20.942Z,15.29
2022-10-02T08:08:39.016Z,15.65
2022-10-02T08:18:34.553Z,16.49
2022-10-02T08:30:48.692Z,16.61
2022-10-02T08:34:02.002Z,16.12
2022-10-02T08:37:38.032Z,16.39
2022-10-02T08:41:21.981Z,15.92
2022-10-02T08:44:59.551Z,16.97
2022-10-02T08:49:04.938Z,17.27
2022-10-02T08:53:03.589Z,17.00
2022-10-02T08:57:01.900Z,16.43
2022-10-02T09:00:29.175Z,16.10
2022-10-02T09:04:41.493Z,15.54
2022-10-02T09:08:47.976Z,15.23
2022-10-02T09:12:51.117Z,14.97
2022-10-02T09:16:14.521Z,14.83
2022-10-02T09:19:45.796Z,15.86
2022-10-02T09:23:32.464Z,15.52
2022-10-02T09:27:37.623Z,15.76
2022-10-02T09:31:33.715Z,15.31
2022-10-02T09:35:26.041Z,15.16
2022-10-02T09:39:18.277Z,14.91
2022-10-02T09:43:05.474Z,14.90
2022-10-02T09:46:58.795Z,14.90
2022-10-02T09:50:36.389Z,14.76
2022-10-02T09:54:08.985Z,14.74
2022-10-02T09:58:06.350Z,14.64
2022-10-02T10:01:51.711Z,14.48
2022-10-02T10:05:56.270Z,14.52
2022-10-02T10:09:44.261Z,14.51
2022-10-02T10:13:32.739Z,14.81
2022-10-02T10:17:44.536Z,15.08
2022-10-02T10:21:40.424Z,15.77
2022-10-02T10:25:25.994Z,16.75
2022-10-02T10:29:13.159Z,16.89
2022-10-02T10:33:27.977Z,16.44
2022-10-02T10:37:20.083Z,15.96
2022-10-02T10:40:46.886Z,15.60
2022-10-02T10:44:36.349Z,15.21
2022-10-02T10:48:28.654Z,15.16
2022-10-02T10:51:47.510Z,15.21
2022-10-02T10:55:21.932Z,15.08
2022-10-02T10:58:42.142Z,14.93
2022-10-02T11:02:03.315Z,14.98
2022-10-02T11:06:13.620Z,14.91
2022-10-02T11:25:23.706Z,15.72
2022-10-02T11:29:25.783Z,15.66
2022-10-02T11:33:10.810Z,15.59
2022-10-02T11:36:49.324Z,15.51
2022-10-02T11:40:40.567Z,15.49
2022-10-02T11:44:22.222Z,15.38
2022-10-02T11:48:18.856Z,15.37
2022-10-02T11:52:29.466Z,15.45
2022-10-02T11:56:03.592Z,15.62
2022-10-02T11:59:35.097Z,16.61
2022-10-02T12:02:55.628Z,17.07
2022-10-02T12:06:15.355Z,17.16
2022-10-02T12:09:36.085Z,17.40
2022-10-02T12:12:55.637Z,17.16
2022-10-02T12:16:16.497Z,16.75
2022-10-02T12:19:38.670Z,16.68
2022-10-02T12:23:13.231Z,16.41
2022-10-02T12:26:55.732Z,15.90
2022-10-02T12:30:17.302Z,15.15
2022-10-02T12:33:41.050Z,14.71
2022-10-02T12:37:00.787Z,14.69
2022-10-02T12:40:23.430Z,14.57
2022-10-02T12:44:13.554Z,14.55
2022-10-02T12:47:41.615Z,14.82
2022-10-02T12:51:09.718Z,15.18
2022-10-02T12:55:20.126Z,15.38
2022-10-02T12:58:49.926Z,15.59
2022-10-02T13:02:59.881Z,15.73
2022-10-02T13:06:29.795Z,15.92
2022-10-02T13:09:50.799Z,16.14
2022-10-02T13:13:24.924Z,16.33
2022-10-02T13:16:43.945Z,16.38
2022-10-02T13:20:09.011Z,16.44
2022-10-02T13:23:32.187Z,16.40
2022-10-02T13:26:51.910Z,16.29
2022-10-02T13:30:21.436Z,16.20
2022-10-02T13:34:08.700Z,16.31
2022-10-02T13:37:45.213Z,16.53
2022-10-02T13:41:03.001Z,16.66
2022-10-02T13:44:25.320Z,16.46
2022-10-02T13:47:59.848Z,16.26
2022-10-02T13:51:18.666Z,16.12
2022-10-02T13:54:56.419Z,16.15
2022-10-02T13:58:35.205Z,16.30
2022-10-02T14:01:58.976Z,16.47
2022-10-02T14:05:19.015Z,16.57
2022-10-02T14:08:59.899Z,16.39
2022-10-02T14:12:34.488Z,16.14
2022-10-02T14:16:08.620Z,16.09
2022-10-02T14:19:37.946Z,16.07
2022-10-02T14:23:02.505Z,15.99
2022-10-02T14:26:24.609Z,15.93
2022-10-02T14:29:48.757Z,15.83
2022-10-02T14:33:09.069Z,15.73
2022-10-02T14:36:25.261Z,15.57
2022-10-02T14:39:42.203Z,15.30
2022-10-02T14:43:20.966Z,14.63
2022-10-02T14:47:03.433Z,14.35
2022-10-02T14:50:51.837Z,14.00
2022-10-02T14:54:16.031Z,13.82
2022-10-02T14:57:46.294Z,13.69
2022-10-02T15:01:21.467Z,13.49
2022-10-02T15:04:45.093Z,13.54
2022-10-02T15:07:58.477Z,13.54
2022-10-02T15:11:19.422Z,13.47
2022-10-02T15:14:39.932Z,13.41
2022-10-02T15:18:05.786Z,13.36
2022-10-02T15:21:31.025Z,13.31
2022-10-02T15:24:50.882Z,13.28
2022-10-02T15:28:34.523Z,13.18
2022-10-02T15:31:31.508Z,13.09
2022-10-02T15:34:48.305Z,13.03
2022-10-02T15:38:26.241Z,12.97
2022-10-02T15:41:44.861Z,12.96
2022-10-02T15:45:25.704Z,12.91
2022-10-02T15:49:07.806Z,12.81
2022-10-02T15:52:29.763Z,12.66
2022-10-02T15:55:48.078Z,12.59
2022-10-02T15:59:16.193Z,12.51
2022-10-02T16:03:12.282Z,12.54
2022-10-02T16:06:41.514Z,12.51
2022-10-02T16:10:02.267Z,12.60
2022-10-02T16:13:34.876Z,12.60
2022-10-02T16:17:13.679Z,12.60
2022-10-02T16:21:02.339Z,12.58
2022-10-02T16:24:43.177Z,12.66
2022-10-02T16:28:08.911Z,12.68
2022-10-02T16:31:47.465Z,12.71
2022-10-02T16:35:43.932Z,12.63
2022-10-02T16:39:00.994Z,12.55
2022-10-02T16:42:21.669Z,12.51
2022-10-02T16:45:56.606Z,12.49
2022-10-02T16:49:15.653Z,12.49
2022-10-02T16:52:33.748Z,12.47
2022-10-02T16:55:49.695Z,12.48
2022-10-02T16:59:11.775Z,12.46
2022-10-02T17:02:30.266Z,12.43
2022-10-02T17:05:51.095Z,12.37
2022-10-02T17:09:09.794Z,12.33
2022-10-02T17:12:28.201Z,12.29
2022-10-02T17:15:48.219Z,12.23
2022-10-02T17:19:04.343Z,12.14
2022-10-02T17:22:27.524Z,12.11
2022-10-02T17:25:47.428Z,12.12
2022-10-02T17:29:06.506Z,12.12
2022-10-02T17:32:18.818Z,12.11
2022-10-02T17:35:55.510Z,12.08
2022-10-02T17:39:28.487Z,12.06
2022-10-02T17:42:53.678Z,12.08
2022-10-02T17:46:14.319Z,12.00
2022-10-02T17:49:35.648Z,12.00
2022-10-02T17:53:06.493Z,12.04
2022-10-02T17:56:46.923Z,12.07
2022-10-02T18:00:25.868Z,12.12
2022-10-02T18:03:51.915Z,12.15
2022-10-02T18:07:19.164Z,12.13
2022-10-02T18:10:38.497Z,12.17
2022-10-02T18:14:05.999Z,12.18
2022-10-02T18:17:21.081Z,12.13
2022-10-02T18:20:40.626Z,12.11
2022-10-02T18:24:21.628Z,12.09
2022-10-02T18:27:49.768Z,11.98
2022-10-02T18:31:12.699Z,11.99
2022-10-02T18:34:43.967Z,11.97
2022-10-02T18:38:19.934Z,11.98
2022-10-02T18:41:50.343Z,12.01
2022-10-02T18:45:10.124Z,11.93
2022-10-02T18:48:43.048Z,11.88
2022-10-02T18:52:34.414Z,11.83
2022-10-02T18:56:05.158Z,11.77
2022-10-02T18:59:25.840Z,11.74
2022-10-02T19:02:53.652Z,11.74
2022-10-02T19:06:16.847Z,11.72
2022-10-02T19:09:34.485Z,11.74
2022-10-02T19:12:49.721Z,11.74
2022-10-02T19:16:03.665Z,11.74
2022-10-02T19:19:25.392Z,11.78
2022-10-02T19:22:41.623Z,11.83
2022-10-02T19:25:57.155Z,11.63
2022-10-02T19:29:19.873Z,11.26
2022-10-02T19:32:36.811Z,11.13
2022-10-02T19:35:51.828Z,11.07
2022-10-02T19:39:10.465Z,11.06
2022-10-02T19:42:28.738Z,11.01
2022-10-02T19:45:44.213Z,10.90
2022-10-02T19:49:01.958Z,10.97
2022-10-02T19:52:43.801Z,10.99
2022-10-02T19:55:59.807Z,10.93
2022-10-02T19:59:18.599Z,10.86
2022-10-02T20:02:34.168Z,10.75
2022-10-02T20:05:47.883Z,10.78
2022-10-02T20:09:05.746Z,10.79
2022-10-02T20:12:22.963Z,10.79
2022-10-02T20:15:55.855Z,10.80
2022-10-02T20:19:08.196Z,10.80
2022-10-02T20:22:35.905Z,10.85
2022-10-02T20:25:55.444Z,10.82
2022-10-02T20:29:12.570Z,10.79
2022-10-02T20:32:25.158Z,10.73
2022-10-02T20:35:43.736Z,10.68
2022-10-02T20:39:01.621Z,10.59
2022-10-02T20:42:19.976Z,10.55
2022-10-02T20:45:39.066Z,10.49
2022-10-02T20:49:13.333Z,10.46
2022-10-02T20:52:50.677Z,10.46
2022-10-02T20:56:11.018Z,10.41
2022-10-02T21:00:01.889Z,10.39
2022-10-02T21:03:56.768Z,10.39
2022-10-02T21:08:07.579Z,10.36
2022-10-02T21:11:47.264Z,10.31
2022-10-02T21:15:26.654Z,10.27
2022-10-02T21:19:12.585Z,10.25
2022-10-02T21:22:57.444Z,10.21
2022-10-02T21:27:02.404Z,10.15
2022-10-02T21:30:22.119Z,10.13
2022-10-02T21:33:38.676Z,10.13
2022-10-02T21:36:58.605Z,10.17
2022-10-02T21:40:55.762Z,10.22
2022-10-02T21:44:54.920Z,10.26
2022-10-02T21:49:01.610Z,10.31
2022-10-02T21:53:11.772Z,10.34
2022-10-02T21:57:09.345Z,10.33
2022-10-02T22:00:25.877Z,10.25
2022-10-02T22:04:16.182Z,10.23
2022-10-02T22:07:33.198Z,10.20
2022-10-02T22:10:47.514Z,10.18
2022-10-02T22:14:03.473Z,10.20
2022-10-02T22:17:25.656Z,10.15
2022-10-02T22:20:59.660Z,10.12
2022-10-02T22:24:40.654Z,10.09
2022-10-02T22:28:20.717Z,10.12
2022-10-02T22:32:03.224Z,10.17
2022-10-02T22:35:21.868Z,10.17
2022-10-02T22:38:38.113Z,10.14
2022-10-02T22:42:00.578Z,10.10
2022-10-02T22:45:19.422Z,10.12
2022-10-02T22:48:41.883Z,10.14
2022-10-02T22:52:01.318Z,10.17
2022-10-02T22:55:19.445Z,10.19
2022-10-02T22:58:42.557Z,10.19
2022-10-02T23:02:00.396Z,10.20
2022-10-02T23:05:18.315Z,10.20
2022-10-02T23:08:35.986Z,10.14
2022-10-02T23:11:52.963Z,10.22
2022-10-02T23:15:19.173Z,10.17
2022-10-02T23:18:45.084Z,10.15
2022-10-02T23:22:01.534Z,10.16
2022-10-02T23:25:23.906Z,10.16
2022-10-02T23:28:41.391Z,10.20
2022-10-02T23:32:02.991Z,10.24
2022-10-02T23:35:20.500Z,10.26
2022-10-02T23:38:40.498Z,10.29
2022-10-02T23:41:55.991Z,10.30
2022-10-02T23:45:14.983Z,10.33
2022-10-02T23:48:27.264Z,10.36
2022-10-02T23:51:48.523Z,10.37
2022-10-02T23:55:14.176Z,10.39
2022-10-02T23:58:59.599Z,10.41
